createdAt,value
2017-10-13T00:01:22.375Z,12.53
2017-10-13T00:03:50.758Z,12.61
2017-10-13T00:06:20.041Z,12.64
2017-10-13T00:08:48.694Z,12.63
2017-10-13T00:11:17.117Z,12.67
2017-10-13T00:13:48.902Z,12.70
2017-10-13T00:16:17.241Z,12.73
2017-10-13T00:18:45.624Z,12.74
2017-10-13T00:21:17.095Z,12.76
2017-10-13T00:23:47.347Z,12.77
2017-10-13T00:26:15.693Z,12.70
2017-10-13T00:28:44.056Z,12.76
2017-10-13T00:31:15.837Z,12.75
2017-10-13T00:33:44.196Z,12.80
2017-10-13T00:36:12.589Z,12.79
2017-10-13T00:38:40.989Z,12.80
2017-10-13T00:41:10.261Z,12.78
2017-10-13T00:43:39.810Z,12.73
2017-10-13T00:46:08.250Z,12.78
2017-10-13T00:48:36.648Z,12.81
2017-10-13T00:51:05.034Z,12.82
2017-10-13T00:53:36.489Z,12.81
2017-10-13T00:56:09.450Z,12.83
2017-10-13T00:58:41.512Z,12.89
2017-10-13T01:01:09.919Z,12.84
2017-10-13T01:03:38.288Z,12.78
2017-10-13T01:06:06.708Z,12.74
2017-10-13T01:08:35.956Z,12.72
2017-10-13T01:11:08.946Z,12.73
2017-10-13T01:13:38.137Z,12.71
2017-10-13T01:16:06.653Z,12.69
2017-10-13T01:18:35.022Z,12.66
2017-10-13T01:21:03.385Z,12.60
2017-10-13T01:23:36.389Z,12.67
2017-10-13T01:26:04.752Z,12.62
2017-10-13T01:28:33.420Z,12.65
2017-10-13T01:31:05.503Z,12.66
2017-10-13T01:33:34.160Z,12.74
2017-10-13T01:36:04.116Z,12.79
2017-10-13T01:38:32.545Z,12.71
2017-10-13T01:41:01.807Z,12.67
2017-10-13T01:43:30.155Z,12.66
2017-10-13T01:45:58.565Z,12.62
2017-10-13T01:48:26.940Z,12.69
2017-10-13T01:50:55.333Z,12.62
2017-10-13T01:53:27.377Z,12.63
2017-10-13T01:55:57.632Z,12.58
2017-10-13T01:58:25.984Z,12.55
2017-10-13T02:00:54.365Z,12.56
2017-10-13T02:03:22.832Z,12.54
2017-10-13T02:05:53.282Z,12.52
2017-10-13T02:08:34.174Z,12.49
2017-10-13T02:11:02.653Z,12.50
2017-10-13T02:13:31.015Z,12.44
2017-10-13T02:15:59.371Z,12.36
2017-10-13T02:18:27.780Z,12.41
2017-10-13T02:20:59.552Z,12.33
2017-10-13T02:23:27.908Z,12.35
2017-10-13T02:25:56.283Z,12.36
2017-10-13T02:28:26.506Z,12.22
2017-10-13T02:30:54.914Z,12.28
2017-10-13T02:33:23.269Z,12.21
2017-10-13T02:35:53.520Z,12.19
2017-10-13T02:38:21.876Z,12.18
2017-10-13T02:40:50.252Z,12.16
2017-10-13T02:43:23.568Z,12.16
2017-10-13T02:45:51.919Z,12.18
2017-10-13T02:48:20.338Z,12.04
2017-10-13T02:50:51.760Z,12.10
2017-10-13T02:53:23.231Z,12.16
2017-10-13T02:55:54.971Z,12.02
2017-10-13T02:58:27.316Z,11.97
2017-10-13T03:00:55.714Z,11.85
2017-10-13T03:03:25.962Z,11.92
2017-10-13T03:05:54.350Z,11.87
2017-10-13T03:08:22.826Z,11.85
2017-10-13T03:10:53.238Z,11.80
2017-10-13T03:13:21.607Z,11.72
2017-10-13T03:15:50.941Z,11.76
2017-10-13T03:18:19.297Z,11.75
2017-10-13T03:20:47.679Z,11.75
2017-10-13T03:23:20.675Z,11.73
2017-10-13T03:25:53.049Z,11.72
2017-10-13T03:28:21.468Z,11.78
2017-10-13T03:30:49.834Z,11.70
2017-10-13T03:33:18.208Z,11.60
2017-10-13T03:35:49.635Z,11.56
2017-10-13T03:38:18.039Z,11.62
2017-10-13T03:40:46.390Z,11.64
2017-10-13T03:43:14.764Z,11.64
2017-10-13T03:45:43.188Z,11.59
2017-10-13T03:48:11.541Z,11.61
2017-10-13T03:50:40.912Z,11.61
2017-10-13T03:53:09.204Z,11.60
2017-10-13T03:55:38.242Z,11.59
2017-10-13T03:58:06.553Z,11.54
2017-10-13T04:00:35.587Z,11.49
2017-10-13T04:03:03.973Z,11.41
2017-10-13T04:05:32.355Z,11.32
2017-10-13T04:08:00.739Z,11.17
2017-10-13T04:10:29.163Z,11.31
2017-10-13T04:12:58.423Z,11.26
2017-10-13T04:15:27.059Z,11.29
2017-10-13T04:17:55.811Z,11.23
2017-10-13T04:20:24.148Z,11.29
2017-10-13T04:22:52.454Z,11.25
2017-10-13T04:25:20.915Z,11.23
2017-10-13T04:27:49.315Z,11.30
2017-10-13T04:30:17.678Z,11.26
2017-10-13T04:32:45.963Z,11.26
2017-10-13T04:35:14.232Z,11.26
2017-10-13T04:37:43.298Z,11.30
2017-10-13T04:40:11.571Z,11.34
2017-10-13T04:42:40.678Z,11.34
2017-10-13T04:45:08.976Z,11.45
2017-10-13T04:47:37.249Z,11.35
2017-10-13T04:50:05.533Z,11.36
2017-10-13T04:52:33.814Z,11.32
2017-10-13T04:55:02.097Z,11.45
2017-10-13T04:57:31.620Z,11.42
2017-10-13T04:59:59.881Z,11.53
2017-10-13T05:02:28.179Z,11.64
2017-10-13T05:04:56.552Z,11.55
2017-10-13T05:07:24.806Z,11.59
2017-10-13T05:09:53.087Z,11.61
2017-10-13T05:12:21.376Z,11.66
2017-10-13T05:14:49.674Z,11.76
2017-10-13T05:17:17.955Z,11.69
2017-10-13T05:19:46.235Z,11.69
2017-10-13T05:22:14.519Z,11.78
2017-10-13T05:24:42.828Z,11.84
2017-10-13T05:27:11.103Z,11.91
2017-10-13T05:29:40.135Z,11.85
2017-10-13T05:32:08.430Z,11.93
2017-10-13T05:34:36.678Z,11.83
2017-10-13T05:37:07.022Z,11.91
2017-10-13T05:39:35.374Z,11.92
2017-10-13T05:42:03.617Z,11.90
2017-10-13T05:44:31.908Z,11.95
2017-10-13T05:47:00.947Z,12.02
2017-10-13T05:49:29.617Z,12.02
2017-10-13T05:51:57.871Z,12.04
2017-10-13T05:54:26.140Z,12.07
2017-10-13T05:56:54.419Z,12.14
2017-10-13T05:59:23.452Z,12.10
2017-10-13T06:01:53.061Z,12.15
2017-10-13T06:04:21.329Z,12.21
2017-10-13T06:06:49.616Z,12.24
2017-10-13T06:09:17.889Z,12.21
2017-10-13T06:11:46.160Z,12.22
2017-10-13T06:14:14.440Z,12.28
2017-10-13T06:16:42.739Z,12.40
2017-10-13T06:19:11.003Z,12.44
2017-10-13T06:21:39.281Z,12.52
2017-10-13T06:24:07.554Z,12.56
2017-10-13T06:26:35.837Z,12.63
2017-10-13T06:29:05.170Z,12.71
2017-10-13T06:31:33.439Z,12.75
2017-10-13T06:34:01.716Z,12.75
2017-10-13T06:36:31.309Z,12.79
2017-10-13T06:38:59.589Z,12.84
2017-10-13T06:41:27.847Z,12.91
2017-10-13T06:43:56.128Z,12.95
2017-10-13T06:46:24.419Z,13.00
2017-10-13T06:48:52.685Z,13.06
2017-10-13T06:51:20.983Z,13.13
2017-10-13T06:53:49.252Z,13.19
2017-10-13T06:56:17.531Z,13.19
2017-10-13T06:58:45.841Z,13.25
2017-10-13T07:01:14.793Z,13.32
2017-10-13T07:03:43.644Z,13.39
2017-10-13T07:06:13.895Z,13.44
2017-10-13T07:08:43.417Z,13.46
2017-10-13T07:11:12.510Z,13.54
2017-10-13T07:13:42.090Z,13.60
2017-10-13T07:16:11.070Z,13.65
2017-10-13T07:18:40.397Z,13.70
2017-10-13T07:21:09.450Z,13.79
2017-10-13T07:23:38.208Z,13.85
2017-10-13T07:26:07.267Z,13.90
2017-10-13T07:28:36.268Z,13.98
2017-10-13T07:31:06.297Z,14.05
2017-10-13T07:33:35.312Z,14.10
2017-10-13T07:36:04.381Z,14.14
2017-10-13T07:38:33.319Z,14.21
2017-10-13T07:41:02.211Z,14.24
2017-10-13T07:43:31.208Z,14.29
2017-10-13T07:46:00.065Z,14.35
2017-10-13T07:48:28.732Z,14.42
2017-10-13T07:50:59.054Z,14.49
2017-10-13T07:53:28.371Z,14.55
2017-10-13T07:55:58.193Z,14.59
2017-10-13T07:58:27.507Z,14.65
2017-10-13T08:00:56.247Z,14.71
2017-10-13T08:03:25.369Z,14.75
2017-10-13T08:05:55.240Z,14.80
2017-10-13T08:08:24.510Z,14.81
2017-10-13T08:10:53.511Z,14.86
2017-10-13T08:13:22.858Z,14.88
2017-10-13T08:15:52.435Z,14.93
2017-10-13T08:18:21.983Z,14.97
2017-10-13T08:20:50.688Z,15.03
2017-10-13T08:23:19.954Z,15.08
2017-10-13T08:25:48.921Z,15.13
2017-10-13T08:28:17.504Z,15.17
2017-10-13T08:30:47.232Z,15.21
2017-10-13T08:33:16.606Z,15.27
2017-10-13T08:35:45.358Z,15.29
2017-10-13T08:38:14.222Z,15.33
2017-10-13T08:40:43.202Z,15.38
2017-10-13T08:43:12.110Z,15.42
2017-10-13T08:45:42.568Z,15.44
2017-10-13T08:48:11.370Z,15.47
2017-10-13T08:50:41.885Z,15.51
2017-10-13T08:53:10.169Z,15.57
2017-10-13T08:55:38.437Z,15.61
2017-10-13T08:58:07.098Z,15.62
2017-10-13T09:00:36.161Z,15.67
2017-10-13T09:03:04.976Z,15.70
2017-10-13T09:05:34.608Z,15.72
2017-10-13T09:08:04.981Z,15.75
2017-10-13T09:10:34.498Z,15.76
2017-10-13T09:13:03.374Z,15.83
2017-10-13T09:15:32.929Z,15.86
2017-10-13T09:18:01.955Z,15.98
2017-10-13T09:20:31.484Z,16.06
2017-10-13T09:23:06.170Z,16.11
2017-10-13T09:25:36.034Z,16.16
2017-10-13T09:28:05.091Z,16.22
2017-10-13T09:30:34.777Z,16.23
2017-10-13T09:33:03.990Z,16.29
2017-10-13T09:35:32.783Z,16.33
2017-10-13T09:38:02.181Z,16.41
2017-10-13T09:40:31.465Z,16.45
2017-10-13T09:43:00.535Z,16.56
2017-10-13T09:45:29.449Z,16.59
2017-10-13T09:47:58.787Z,16.69
2017-10-13T09:50:27.981Z,16.71
2017-10-13T09:52:58.589Z,16.71
2017-10-13T09:55:27.067Z,16.76
2017-10-13T09:57:56.162Z,16.82
2017-10-13T10:00:25.370Z,16.88
2017-10-13T10:02:55.483Z,16.89
2017-10-13T10:05:25.191Z,16.93
2017-10-13T10:07:54.333Z,16.98
2017-10-13T10:10:23.597Z,17.01
2017-10-13T10:12:53.809Z,17.07
2017-10-13T10:15:22.186Z,17.10
2017-10-13T10:17:51.003Z,17.13
2017-10-13T10:20:20.792Z,17.16
2017-10-13T10:22:50.199Z,17.19
2017-10-13T10:25:19.181Z,17.26
2017-10-13T10:27:49.407Z,17.26
2017-10-13T10:30:18.136Z,17.25
2017-10-13T10:32:47.203Z,17.29
2017-10-13T10:35:16.920Z,17.33
2017-10-13T10:37:47.744Z,17.36
2017-10-13T10:40:17.005Z,17.44
2017-10-13T10:42:46.033Z,17.54
2017-10-13T10:45:15.414Z,17.60
2017-10-13T10:47:44.338Z,17.67
2017-10-13T10:50:12.863Z,17.71
2017-10-13T10:52:41.315Z,17.75
2017-10-13T10:55:10.349Z,17.70
2017-10-13T10:57:38.817Z,17.72
2017-10-13T11:00:07.200Z,17.73
2017-10-13T11:02:36.533Z,17.73
2017-10-13T11:05:06.736Z,17.69
2017-10-13T11:07:37.889Z,17.67
2017-10-13T11:10:06.248Z,17.61
2017-10-13T11:12:35.905Z,17.54
2017-10-13T11:15:05.066Z,17.48
2017-10-13T11:17:35.868Z,17.47
2017-10-13T11:20:04.310Z,17.43
2017-10-13T11:22:32.609Z,17.42
2017-10-13T11:25:00.916Z,17.48
2017-10-13T11:27:30.359Z,17.54
2017-10-13T11:29:59.916Z,17.62
2017-10-13T11:32:29.922Z,17.62
2017-10-13T11:34:59.108Z,17.63
2017-10-13T11:37:29.571Z,17.68
2017-10-13T11:39:59.225Z,17.68
2017-10-13T11:42:29.333Z,17.68
2017-10-13T11:44:58.849Z,17.69
2017-10-13T11:47:31.208Z,17.71
2017-10-13T11:50:01.706Z,17.70
2017-10-13T11:52:29.993Z,17.72
2017-10-13T11:54:58.361Z,17.72
2017-10-13T11:57:27.344Z,17.72
2017-10-13T11:59:58.113Z,17.78
2017-10-13T12:02:26.902Z,17.78
2017-10-13T12:04:57.279Z,17.79
2017-10-13T12:07:25.944Z,17.80
2017-10-13T12:09:55.598Z,17.85
2017-10-13T12:12:23.957Z,17.85
2017-10-13T12:14:53.493Z,17.88
2017-10-13T12:17:21.790Z,17.93
2017-10-13T12:19:50.157Z,17.99
2017-10-13T12:22:18.475Z,18.03
2017-10-13T12:24:46.813Z,18.09
2017-10-13T12:27:15.465Z,18.09
2017-10-13T12:29:43.849Z,18.13
2017-10-13T12:32:13.445Z,18.13
2017-10-13T12:34:42.932Z,18.08
2017-10-13T12:37:11.868Z,18.12
2017-10-13T12:39:41.880Z,18.12
2017-10-13T12:42:13.109Z,18.10
2017-10-13T12:44:42.715Z,18.09
2017-10-13T12:47:12.751Z,18.09
2017-10-13T12:49:43.281Z,18.14
2017-10-13T12:52:12.210Z,18.14
2017-10-13T12:54:42.283Z,18.19
2017-10-13T12:57:12.444Z,18.21
2017-10-13T12:59:41.114Z,18.17
2017-10-13T13:02:10.760Z,18.19
2017-10-13T13:04:40.156Z,18.22
2017-10-13T13:07:09.308Z,18.23
2017-10-13T13:09:37.602Z,18.26
2017-10-13T13:12:06.683Z,18.27
2017-10-13T13:14:35.706Z,18.28
2017-10-13T13:17:04.689Z,18.29
2017-10-13T13:19:33.515Z,18.30
2017-10-13T13:22:03.498Z,18.34
2017-10-13T13:24:33.626Z,18.38
2017-10-13T13:27:03.043Z,18.41
2017-10-13T13:29:31.316Z,18.45
2017-10-13T13:32:00.361Z,18.45
2017-10-13T13:34:29.746Z,18.47
2017-10-13T13:36:59.810Z,18.51
2017-10-13T13:39:28.906Z,18.54
2017-10-13T13:41:58.528Z,18.54
2017-10-13T13:44:27.419Z,18.55
2017-10-13T13:46:57.637Z,18.53
2017-10-13T13:49:26.645Z,18.54
2017-10-13T13:51:56.023Z,18.53
2017-10-13T13:54:24.576Z,18.55
2017-10-13T13:56:53.879Z,18.51
2017-10-13T13:59:23.746Z,18.47
2017-10-13T14:01:53.630Z,18.47
2017-10-13T14:04:23.269Z,18.44
2017-10-13T14:06:52.066Z,18.44
2017-10-13T14:09:20.430Z,18.43
2017-10-13T14:11:49.945Z,18.43
2017-10-13T14:14:19.125Z,18.44
2017-10-13T14:16:48.451Z,18.41
2017-10-13T14:19:17.654Z,18.42
2017-10-13T14:21:46.662Z,18.40
2017-10-13T14:24:15.674Z,18.38
2017-10-13T14:26:45.761Z,18.36
2017-10-13T14:29:14.830Z,18.39
2017-10-13T14:31:44.393Z,18.41
2017-10-13T14:34:13.514Z,18.42
2017-10-13T14:36:44.131Z,18.43
2017-10-13T14:39:13.377Z,18.46
2017-10-13T14:41:42.700Z,18.47
2017-10-13T14:44:11.790Z,18.51
2017-10-13T14:46:40.211Z,18.53
2017-10-13T14:49:08.832Z,18.52
2017-10-13T14:51:37.985Z,18.56
2017-10-13T14:54:08.233Z,18.60
2017-10-13T14:56:37.110Z,18.63
2017-10-13T14:59:06.363Z,18.64
2017-10-13T15:01:35.371Z,18.90
2017-10-13T15:04:04.871Z,19.05
2017-10-13T15:06:33.255Z,19.26
2017-10-13T15:09:02.215Z,19.66
2017-10-13T15:11:31.320Z,19.85
2017-10-13T15:13:59.667Z,20.16
2017-10-13T15:16:28.514Z,20.42
2017-10-13T15:18:57.211Z,20.63
2017-10-13T15:21:25.548Z,20.85
2017-10-13T15:23:54.213Z,21.05
2017-10-13T15:26:29.944Z,21.07
2017-10-13T15:29:04.705Z,21.19
2017-10-13T15:31:39.222Z,21.20
2017-10-13T15:34:13.884Z,21.04
2017-10-13T15:36:42.612Z,20.85
2017-10-13T15:39:16.444Z,20.58
2017-10-13T15:41:50.743Z,20.32
2017-10-13T15:44:24.784Z,20.20
2017-10-13T15:46:58.641Z,20.02
2017-10-13T15:49:32.456Z,19.95
2017-10-13T15:52:06.339Z,19.82
2017-10-13T15:54:40.524Z,19.71
2017-10-13T15:57:08.802Z,19.64
2017-10-13T15:59:37.081Z,19.55
2017-10-13T16:02:05.409Z,19.51
2017-10-13T16:04:37.171Z,19.42
2017-10-13T16:07:05.695Z,19.34
2017-10-13T16:09:33.991Z,19.27
2017-10-13T16:12:02.273Z,19.10
2017-10-13T16:14:30.598Z,18.89
2017-10-13T16:16:58.944Z,18.69
2017-10-13T16:19:27.250Z,18.48
2017-10-13T16:21:55.541Z,18.41
2017-10-13T16:24:24.095Z,18.26
2017-10-13T16:26:52.355Z,18.21
2017-10-13T16:29:20.640Z,18.04
2017-10-13T16:31:48.941Z,17.97
2017-10-13T16:34:17.906Z,17.88
2017-10-13T16:36:46.246Z,17.76
2017-10-13T16:39:14.919Z,17.68
2017-10-13T16:41:43.579Z,17.55
2017-10-13T16:44:12.849Z,17.42
2017-10-13T16:46:41.135Z,17.32
2017-10-13T16:49:09.636Z,17.26
2017-10-13T16:51:38.161Z,17.14
2017-10-13T16:54:06.544Z,16.97
2017-10-13T16:56:35.597Z,17.01
2017-10-13T16:59:03.887Z,16.83
2017-10-13T17:01:32.153Z,16.76
2017-10-13T17:04:00.421Z,16.70
2017-10-13T17:06:29.114Z,16.55
2017-10-13T17:08:58.101Z,16.57
2017-10-13T17:11:26.813Z,16.54
2017-10-13T17:13:55.220Z,16.50
2017-10-13T17:16:24.455Z,16.42
2017-10-13T17:18:52.727Z,16.26
2017-10-13T17:21:21.013Z,16.19
2017-10-13T17:23:50.165Z,16.16
2017-10-13T17:26:18.506Z,15.86
2017-10-13T17:28:46.787Z,15.84
2017-10-13T17:31:15.063Z,15.77
2017-10-13T17:33:43.355Z,15.76
2017-10-13T17:36:11.644Z,15.80
2017-10-13T17:38:39.941Z,15.87
2017-10-13T17:41:08.581Z,15.80
2017-10-13T17:43:36.845Z,15.58
2017-10-13T17:46:05.183Z,15.61
2017-10-13T17:48:34.340Z,15.61
2017-10-13T17:51:02.667Z,15.50
2017-10-13T17:53:30.944Z,15.60
2017-10-13T17:56:00.017Z,15.61
2017-10-13T17:58:28.325Z,15.56
2017-10-13T18:00:56.619Z,15.39
2017-10-13T18:03:24.928Z,15.33
2017-10-13T18:05:53.345Z,15.25
2017-10-13T18:08:22.425Z,15.28
2017-10-13T18:10:50.700Z,15.25
2017-10-13T18:13:19.017Z,15.06
2017-10-13T18:15:47.319Z,14.89
2017-10-13T18:18:15.646Z,14.87
2017-10-13T18:20:43.977Z,14.82
2017-10-13T18:23:12.319Z,14.74
2017-10-13T18:25:41.790Z,14.63
2017-10-13T18:28:10.241Z,14.77
2017-10-13T18:30:38.665Z,14.80
2017-10-13T18:33:07.020Z,14.57
2017-10-13T18:35:35.350Z,14.45
2017-10-13T18:38:03.689Z,14.38
2017-10-13T18:40:32.043Z,14.40
2017-10-13T18:43:00.693Z,14.47
2017-10-13T18:45:29.029Z,14.39
2017-10-13T18:47:57.444Z,14.36
2017-10-13T18:50:25.791Z,14.33
2017-10-13T18:52:54.164Z,14.36
2017-10-13T18:55:23.466Z,14.34
2017-10-13T18:57:51.797Z,14.28
2017-10-13T19:00:20.594Z,14.16
2017-10-13T19:02:50.145Z,13.99
2017-10-13T19:05:18.491Z,14.01
2017-10-13T19:07:46.877Z,14.02
2017-10-13T19:10:15.211Z,13.85
2017-10-13T19:12:44.382Z,13.90
2017-10-13T19:15:12.726Z,13.88
2017-10-13T19:17:41.070Z,13.71
2017-10-13T19:20:09.409Z,13.53
2017-10-13T19:22:37.747Z,13.54
2017-10-13T19:25:07.107Z,13.48
2017-10-13T19:27:35.447Z,13.46
2017-10-13T19:30:04.445Z,13.51
2017-10-13T19:32:32.782Z,13.57
2017-10-13T19:35:01.180Z,13.36
2017-10-13T19:37:30.292Z,13.32
2017-10-13T19:39:58.617Z,13.36
2017-10-13T19:42:26.990Z,13.25
2017-10-13T19:44:55.347Z,13.07
2017-10-13T19:47:23.677Z,13.03
2017-10-13T19:49:52.079Z,13.04
2017-10-13T19:52:21.193Z,13.02
2017-10-13T19:54:50.390Z,13.05
2017-10-13T19:57:18.776Z,13.07
2017-10-13T19:59:51.245Z,13.21
2017-10-13T20:02:20.504Z,13.29
2017-10-13T20:04:48.871Z,13.13
2017-10-13T20:07:20.193Z,13.16
2017-10-13T20:09:48.682Z,13.14
2017-10-13T20:12:17.088Z,13.07
2017-10-13T20:14:45.447Z,13.08
2017-10-13T20:17:13.806Z,12.91
2017-10-13T20:19:43.104Z,12.97
2017-10-13T20:22:14.556Z,12.95
2017-10-13T20:24:45.110Z,12.88
2017-10-13T20:27:14.673Z,12.82
2017-10-13T20:29:44.241Z,12.73
2017-10-13T20:32:12.649Z,12.75
2017-10-13T20:34:41.767Z,12.84
2017-10-13T20:37:10.134Z,12.80
2017-10-13T20:39:39.260Z,12.71
2017-10-13T20:42:07.754Z,12.59
2017-10-13T20:44:38.324Z,12.46
2017-10-13T20:47:08.161Z,12.40
2017-10-13T20:49:37.476Z,12.47
2017-10-13T20:52:05.861Z,12.41
2017-10-13T20:54:34.267Z,12.34
2017-10-13T20:57:07.523Z,12.43
2017-10-13T20:59:36.891Z,12.55
2017-10-13T21:02:05.248Z,12.50
2017-10-13T21:04:33.610Z,12.34
2017-10-13T21:07:01.980Z,12.39
2017-10-13T21:09:30.349Z,12.29
2017-10-13T21:11:58.737Z,12.31
2017-10-13T21:14:29.258Z,12.31
2017-10-13T21:16:57.636Z,12.25
2017-10-13T21:19:27.985Z,12.28
2017-10-13T21:21:57.494Z,12.13
2017-10-13T21:24:27.992Z,12.03
2017-10-13T21:26:57.311Z,12.20
2017-10-13T21:29:26.623Z,12.09
2017-10-13T21:31:54.985Z,12.02
2017-10-13T21:34:24.302Z,12.05
2017-10-13T21:36:52.656Z,11.94
2017-10-13T21:39:21.991Z,11.85
2017-10-13T21:41:52.530Z,11.90
2017-10-13T21:44:21.808Z,11.83
2017-10-13T21:46:54.163Z,11.84
2017-10-13T21:49:23.493Z,11.94
2017-10-13T21:51:51.854Z,11.93
2017-10-13T21:54:21.145Z,11.89
2017-10-13T21:56:50.474Z,11.71
2017-10-13T21:59:19.800Z,11.60
2017-10-13T22:01:53.699Z,11.69
2017-10-13T22:04:23.690Z,11.72
2017-10-13T22:06:54.890Z,11.59
2017-10-13T22:09:23.423Z,11.74
2017-10-13T22:11:51.801Z,11.80
2017-10-13T22:14:21.135Z,11.71
2017-10-13T22:16:49.471Z,11.66
2017-10-13T22:19:22.209Z,11.52
2017-10-13T22:21:50.545Z,11.44
2017-10-13T22:24:21.465Z,11.55
2017-10-13T22:26:50.659Z,11.57
2017-10-13T22:29:24.039Z,11.42
2017-10-13T22:31:53.584Z,11.41
2017-10-13T22:34:22.917Z,11.24
2017-10-13T22:36:53.421Z,11.18
2017-10-13T22:39:22.752Z,11.24
2017-10-13T22:41:54.795Z,11.26
2017-10-13T22:44:23.149Z,11.25
2017-10-13T22:46:52.857Z,11.32
2017-10-13T22:49:22.074Z,11.14
2017-10-13T22:51:51.352Z,11.15
2017-10-13T22:54:19.718Z,11.09
2017-10-13T22:56:48.947Z,11.05
2017-10-13T22:59:17.446Z,11.18
2017-10-13T23:01:45.825Z,11.10
2017-10-13T23:04:14.193Z,11.11
2017-10-13T23:06:43.516Z,10.93
2017-10-13T23:09:14.000Z,10.81
2017-10-13T23:11:42.412Z,11.01
2017-10-13T23:14:12.912Z,11.10
2017-10-13T23:16:42.351Z,10.94
2017-10-13T23:19:10.682Z,10.92
2017-10-13T23:21:40.222Z,10.95
2017-10-13T23:24:09.580Z,10.99
2017-10-13T23:26:38.865Z,10.77
2017-10-13T23:29:08.162Z,10.67
2017-10-13T23:31:36.476Z,10.68
2017-10-13T23:34:05.131Z,10.68
2017-10-13T23:36:33.559Z,10.77
2017-10-13T23:39:01.950Z,10.62
2017-10-13T23:41:31.281Z,10.54
2017-10-13T23:44:00.568Z,10.49
2017-10-13T23:46:31.107Z,10.58
2017-10-13T23:49:01.601Z,10.52
2017-10-13T23:51:32.172Z,10.61
2017-10-13T23:54:04.859Z,10.60
2017-10-13T23:56:35.357Z,10.55
2017-10-13T23:59:04.439Z,10.68
